Home > Products > Valid Products > TAF

000
FTUS43 KMQT 010535
TAFSAW
TAF
KSAW 010535Z 0106/0206 21010KT P6SM BKN120
     FM011000 20008KT P6SM BKN050
     FM012300 28007KT P6SM BKN040=



000
FTUS43 KMQT 010535
TAFCMX
TAF
KCMX 010535Z 0106/0206 21009KT P6SM BKN100
     FM011000 22007KT P6SM SCT035 BKN050
     FM011600 27015G22KT P6SM BKN035
     FM020000 28011KT P6SM BKN035=



000
FTUS43 KMQT 010535
TAFSAW
TAF
KSAW 010535Z 0106/0206 21010KT P6SM BKN120
     FM011000 20008KT P6SM BKN050
     FM012300 28007KT P6SM BKN040=



000
FTUS43 KMQT 010535
TAFCMX
TAF
KCMX 010535Z 0106/0206 21009KT P6SM BKN100
     FM011000 22007KT P6SM SCT035 BKN050
     FM011600 27015G22KT P6SM BKN035
     FM020000 28011KT P6SM BKN035=



000
FTUS43 KMQT 282325
TAFSAW
TAF
KSAW 282325Z 0100/0124 19009KT P6SM SCT250
     FM010900 20008KT P6SM SCT040 BKN060
     FM012100 26009KT P6SM BKN040=



000
FTUS43 KMQT 282325
TAFCMX
TAF
KCMX 282325Z 0100/0124 21007KT P6SM SCT100
     FM010700 22007KT P6SM SCT035 BKN050
     FM011600 27014G21KT P6SM BKN035=



000
FTUS43 KMQT 282325
TAFSAW
TAF
KSAW 282325Z 0100/0124 19009KT P6SM SCT250
     FM010900 20008KT P6SM SCT040 BKN060
     FM012100 26009KT P6SM BKN040=



000
FTUS43 KMQT 282325
TAFCMX
TAF
KCMX 282325Z 0100/0124 21007KT P6SM SCT100
     FM010700 22007KT P6SM SCT035 BKN050
     FM011600 27014G21KT P6SM BKN035=



000
FTUS43 KMQT 281739
TAFSAW
TAF
KSAW 281739Z 2818/0118 19010KT P6SM SCT250
     FM010900 20008KT P6SM SCT040 BKN060
      AMD LTD TO CLD VIS AND WIND 0103/0111=



000
FTUS43 KMQT 281739
TAFCMX
TAF
KCMX 281739Z 2818/0118 20010KT P6SM SCT250
     FM282300 21007KT P6SM BKN100
     FM010600 22007KT P6SM SCT035 BKN050
     FM011600 27014G21KT P6SM BKN035=



000
FTUS43 KMQT 281128
TAFCMX
TAF
KCMX 281128Z 2812/0112 27009KT P6SM FEW250
     FM281600 24012KT P6SM SCT250
     FM282300 21007KT P6SM BKN150
     FM010600 22007KT P6SM OVC050=



000
FTUS43 KMQT 281128
TAFSAW
TAF
KSAW 281128Z 2812/0112 22007KT P6SM SCT250
     FM281600 21014KT P6SM SCT250
     FM282300 20008KT P6SM SCT250
     FM010900 21008KT P6SM OVC060=



000
FTUS43 KMQT 280521
TAFSAW
TAF
KSAW 280521Z 2806/0106 23004KT P6SM SCT250
     FM281600 21012G18KT P6SM SCT250
     FM282300 20008KT P6SM SCT250=



000
FTUS43 KMQT 280521
TAFCMX
TAF
KCMX 280521Z 2806/0106 26012KT P6SM SCT250
     FM281600 23012KT P6SM SCT250
     FM282300 21010KT P6SM BKN250=



000
FTUS43 KMQT 280521
TAFCMX
TAF
KCMX 280521Z 2806/0106 26012KT P6SM SCT250
     FM281600 23012KT P6SM SCT250
     FM282300 21010KT P6SM BKN250=



000
FTUS43 KMQT 280521
TAFSAW
TAF
KSAW 280521Z 2806/0106 23004KT P6SM SCT250
     FM281600 21012G18KT P6SM SCT250
     FM282300 20008KT P6SM SCT250=



000
FTUS43 KMQT 272323
TAFSAW
TAF
KSAW 272323Z 2800/2824 23004KT P6SM SCT250
     FM281600 21012G18KT P6SM SCT250=



000
FTUS43 KMQT 272323
TAFCMX
TAF
KCMX 272323Z 2800/2824 25008KT P6SM SCT250
     FM281600 23012KT P6SM SCT250=



000
FTUS43 KMQT 271733
TAFSAW
TAF
KSAW 271733Z 2718/2818 25008KT P6SM SKC
     FM280000 23004KT P6SM SCT250
     FM281600 22010KT P6SM SCT250
      AMD LTD TO CLD VIS AND WIND 2803/2811=



000
FTUS43 KMQT 271733
TAFCMX
TAF
KCMX 271733Z 2718/2818 27015KT P6SM SKC
     FM280000 25008KT P6SM SCT250=



000
FTUS43 KMQT 271120
TAFCMX
TAF
KCMX 271120Z 2712/2812 29009KT P6SM SKC
     FM271500 27014KT P6SM SCT025
     FM280000 25008KT P6SM FEW250=



000
FTUS43 KMQT 271120
TAFSAW
TAF
KSAW 271120Z 2712/2812 27005KT P6SM SKC
     FM271600 27010KT P6SM SCT025
     FM280000 24005KT P6SM FEW250=



000
FTUS43 KMQT 270521
TAFSAW
TAF
KSAW 270521Z 2706/2806 26006KT P6SM SKC
     FM271600 24010KT P6SM BKN035
     FM280000 21004KT P6SM SKC=



000
FTUS43 KMQT 270521
TAFCMX
TAF
KCMX 270521Z 2706/2806 29009KT P6SM SCT020
     FM271400 27014KT P6SM SCT025
     FM280000 26008KT P6SM SKC=



000
FTUS43 KMQT 270521
TAFCMX
TAF
KCMX 270521Z 2706/2806 29009KT P6SM SCT020
     FM271400 27014KT P6SM SCT025
     FM280000 26008KT P6SM SKC=



000
FTUS43 KMQT 270521
TAFSAW
TAF
KSAW 270521Z 2706/2806 26006KT P6SM SKC
     FM271600 24010KT P6SM BKN035
     FM280000 21004KT P6SM SKC=



000
FTUS43 KMQT 262333
TAFSAW
TAF
KSAW 262333Z 2700/2724 05007KT P6SM SCT030
     FM270100 29003KT P6SM SKC
     FM271600 24010KT P6SM BKN020=



000
FTUS43 KMQT 262333
TAFCMX
TAF
KCMX 262333Z 2700/2724 29013KT P6SM SCT020
     FM271400 27013KT P6SM SCT025=



000
FTUS43 KMQT 262032 AAB
TAFSAW
TAF AMD
KSAW 262032Z 2621/2718 05007KT P6SM SCT030
     FM262300 29003KT P6SM SKC
     FM271600 25006KT P6SM BKN020
      AMD LTD TO CLD VIS AND WIND 2703/2711=



000
FTUS43 KMQT 262027 AAA
TAFCMX
TAF AMD
KCMX 262027Z 2620/2718 29013KT 3SM -SHSN BKN020
     FM271300 27012KT P6SM SCT025=



000
FTUS43 KMQT 261920 AAA
TAFSAW
TAF AMD
KSAW 261920Z 2619/2718 36007KT P6SM -SHSN BKN030
     FM262100 34004KT P6SM SCT030
     FM262200 29003KT P6SM SKC
     FM271600 25006KT P6SM BKN020
      AMD LTD TO CLD VIS AND WIND 2703/2711=



000
FTUS43 KMQT 261708 AAC
TAFSAW
TAF AMD
KSAW 261708Z 2617/2712 33007KT 2SM -SHSN BKN015
      TEMPO 2617/2620 6SM -SHSN BKN020
     FM262000 34009KT P6SM -SHSN BKN020
     FM262200 29003KT P6SM SKC
     FM270000 28004KT P6SM SKC
      AMD LTD TO CLD VIS AND WIND 2703/2711=



000
FTUS43 KMQT 261448 AAB
TAFSAW
TAF AMD
KSAW 261448Z 2615/2712 36005KT P6SM FEW020
     FM261600 36005KT P6SM -SHSN BKN020
     FM262000 34009KT P6SM SCT020
     FM270000 28004KT P6SM SKC
      AMD LTD TO CLD VIS AND WIND 2703/2711=



000
FTUS43 KMQT 261448 AAB
TAFSAW
TAF AMD
KSAW 261448Z 2615/2712 36005KT P6SM FEW020
     FM261600 36005KT P6SM -SHSN BKN020
     FM262000 34009KT P6SM SCT020
     FM270000 28004KT P6SM SKC
      AMD LTD TO CLD VIS AND WIND 2703/2711=



000
FTUS43 KMQT 261249 AAA
TAFSAW
TAF AMD
KSAW 261249Z 2613/2712 35003KT 5SM -SHSN BKN025
      TEMPO 2613/2615 2SM -SHSN BKN008 OVC015
     FM261500 34005KT P6SM SCT025
      TEMPO 2615/2616 6SM -SHSN BKN025
     FM261700 34009KT P6SM SCT035
     FM270000 28004KT P6SM SKC=



000
FTUS43 KMQT 261249 AAA
TAFSAW
TAF AMD
KSAW 261249Z 2613/2712 35003KT 5SM -SHSN BKN025
      TEMPO 2613/2615 2SM -SHSN BKN008 OVC015
     FM261500 34005KT P6SM SCT025
      TEMPO 2615/2616 6SM -SHSN BKN025
     FM261700 34009KT P6SM SCT035
     FM270000 28004KT P6SM SKC=



000
FTUS43 KMQT 261135
TAFSAW
TAF
KSAW 261135Z 2612/2712 34005KT 6SM -SHSN BKN025
     FM261300 34005KT P6SM SCT025
      TEMPO 2613/2615 6SM -SHSN BKN025
     FM261600 34009KT P6SM SCT035
     FM270000 28004KT P6SM SKC=



000
FTUS43 KMQT 261135
TAFSAW
TAF
KSAW 261135Z 2612/2712 34005KT 6SM -SHSN BKN025
     FM261300 34005KT P6SM SCT025
      TEMPO 2613/2615 6SM -SHSN BKN025
     FM261600 34009KT P6SM SCT035
     FM270000 28004KT P6SM SKC=



000
FTUS43 KMQT 261132
TAFSAW
TAF
KSAW 261132Z 2612/2712 34005KT 6SM -SHSN BKN025
     FM261200 34005KT P6SM SCT025
      TEMPO 2613/2615 6SM -SHSN BKN025
     FM261600 34009KT P6SM SCT035
     FM270000 28004KT P6SM SKC=



000
FTUS43 KMQT 261132
TAFSAW
TAF
KSAW 261132Z 2612/2712 34005KT 6SM -SHSN BKN025
     FM261300 34005KT P6SM SCT025
      TEMPO 2613/2615 6SM -SHSN BKN025
     FM261600 34009KT P6SM SCT035
     FM270000 28004KT P6SM SKC=



000
FTUS43 KMQT 261132
TAFSAW
TAF
KSAW 261132Z 2612/2712 34005KT 6SM -SHSN BKN025
     FM261300 34005KT P6SM SCT025
      TEMPO 2613/2615 6SM -SHSN BKN025
     FM261600 34009KT P6SM SCT035
     FM270000 28004KT P6SM SKC=



000
FTUS43 KMQT 261132
TAFSAW
TAF
KSAW 261132Z 2612/2712 34005KT 6SM -SHSN BKN025
     FM261200 34005KT P6SM SCT025
      TEMPO 2613/2615 6SM -SHSN BKN025
     FM261600 34009KT P6SM SCT035
     FM270000 28004KT P6SM SKC=



000
FTUS43 KMQT 261131
TAFSAW
TAF
KSAW 261131Z 2612/2712 34005KT 6SM -SHSN BKN025
     FM261300 34005KT P6SM SCT025
      TEMPO 2613/2615 6SM -SHSN BKN025
     FM261600 34009KT P6SM SCT035
     FM270000 28004KT P6SM SKC=



000
FTUS43 KMQT 261131
TAFSAW
TAF
KSAW 261131Z 2612/2712 34005KT 6SM -SHSN BKN025
     FM261300 34005KT P6SM SCT025
      TEMPO 2613/2615 6SM -SHSN BKN025
     FM261600 34009KT P6SM SCT035
     FM270000 28004KT P6SM SKC=



000
FTUS43 KMQT 261131
TAFCMX
TAF
KCMX 261131Z 2612/2712 34006KT P6SM SCT025
      TEMPO 2612/2614 -SHSN BKN025
     FM261700 31012KT P6SM SCT035
     FM262300 29007KT P6SM SCT035=



000
FTUS43 KMQT 261131
TAFCMX
TAF
KCMX 261131Z 2612/2712 34006KT P6SM SCT025
      TEMPO 2612/2614 -SHSN BKN025
     FM261700 31012KT P6SM SCT035
     FM262300 29007KT P6SM SCT035=



000
FTUS43 KMQT 260910 AAB
TAFSAW
TAF AMD
KSAW 260910Z 2609/2706 35005KT P6SM SCT025
      TEMPO 2609/2612 6SM -SHSN BKN025
     FM261600 34009KT P6SM SCT035
     FM270000 28004KT P6SM SKC=



000
FTUS43 KMQT 260910 AAB
TAFSAW
TAF AMD
KSAW 260910Z 2609/2706 35005KT P6SM SCT025
      TEMPO 2609/2612 6SM -SHSN BKN025
     FM261600 34009KT P6SM SCT035
     FM270000 28004KT P6SM SKC=



000
FTUS43 KMQT 260905 AAA
TAFCMX
TAF AMD
KCMX 260905Z 2609/2706 36006KT P6SM SKC
     FM261100 34006KT P6SM SCT025
      TEMPO 2611/2614 -SHSN BKN025
     FM261700 31012KT P6SM SCT035
     FM262300 29007KT P6SM SCT035=



000
FTUS43 KMQT 260905 AAA
TAFCMX
TAF AMD
KCMX 260905Z 2609/2706 36006KT P6SM SKC
     FM261100 34006KT P6SM SCT025
      TEMPO 2611/2614 -SHSN BKN025
     FM261700 31012KT P6SM SCT035
     FM262300 29007KT P6SM SCT035=



    US Dept of Commerce
    National Oceanic and Atmospheric Administration
    National Weather Service
    1325 East West Highway
    Silver Spring, MD 20910
    Page Author: NWS Internet Services Team
Disclaimer
Information Quality
Credits
Glossary
Privacy Policy
Freedom of Information Act (FOIA)
About Us
Career Opportunities